Relevés horaires Matro (Suisse)


Relevés horaires à Matro - Jeudi 18 Sept. 2014
Heure UTC1 Température [°C] Vent [km/h] Hum. [%] Pres.4 [hPa] Visi. [Km] Nébu. [octa] Préc.5 [mm] Cond.
2m. Res. Ros. Dir.2 Vit. Moy. Raf.3
23:00 6.2 2.3 6.2 SSE 22.2 25.9 29.6 100 850(0.3/3h) -- -- -- --
22:00 6.1 1.8 6.1 SSE 25.9 25.9 31.5 100 850(0.4/3h) -- -- -- --
21:00 6.3 2.5 6.3 SE 22.2 24.1 27.8 100 850(0.9/3h) -- -- -- --
20:00 6.2 2.3 6.2 SSE 22.2 24.1 27.8 100 850(0.6/3h) -- -- -- --
19:00 6.1 2.2 6.1 SSE 22.2 24.1 27.8 100 850(0.7/3h) -- -- -- --
18:00 6.1 2.2 6.1 SSE 22.2 24.1 27.8 100 850(0.5/3h) -- -- -- --
17:00 5.9 2 5.9 SSE 22.2 24.1 27.8 100 850(0.4/3h) -- -- -- --
16:00 6.0 2.3 6.0 SSE 20.4 20.4 25.9 100 850(0.2/3h) -- -- -- --
15:00 6.0 3 6.0 SE 14.8 20.4 24.1 100 850(-0.1/3h) -- -- -- --
14:00 5.6 2 5.6 SSE 18.5 20.4 24.1 100 850(0.0/3h) -- -- -- --
13:00 5.6 2.2 5.6 SSE 16.7 16.7 24.1 100 850(0.1/3h) -- -- -- --
12:00 5.5 1.7 5.5 S 20.4 33.3 40.7 100 850(0.4/3h) -- -- -- --
11:00 5.6 1.8 5.6 S 20.4 25.9 29.6 100 850(0.6/3h) -- -- -- --
10:00 5.7 1.3 5.7 SSE 25.9 33.3 38.9 100 850(0.8/3h) -- -- -- --
09:00 5.9 1.1 5.9 SSE 31.5 31.5 40.7 100 850(0.6/3h) -- -- -- --
08:00 5.9 1.4 5.9 SE 27.8 29.6 37.0 100 850(0.6/3h) -- -- -- --
07:00 6.0 2.3 6.0 SE 20.4 20.4 25.9 100 850(0.2/3h) -- -- -- --
06:00 6.0 4.5 6.0 ESE 7.4 18.5 22.2 100 850(0.2/3h) -- -- -- --
05:00 5.8 3.8 5.8 ESE 9.3 11.1 14.8 100 850(-0.5/3h) -- -- -- --
04:00 5.5 3.4 5.5 SSE 9.3 9.3 16.7 100 850(-0.7/3h) -- -- -- --
03:00 6.1 4.6 5.0 SE 7.4 18.5 22.2 93 850(-0.8/3h) -- -- -- --
02:00 5.7 4.1 5.4 SE 7.4 14.8 18.5 98 850(-0.6/3h) -- -- -- --
01:00 5.7 2.6 5.1 SSE 14.8 18.5 22.2 96 850(-0.4/3h) -- -- -- --
00:00 5.7 2.9 5.0 SE 13.0 24.1 33.3 95 850(-0.2/3h) -- -- -- --

1 Coordinated Universal Time. Actuellement il est 04:00 locale et 02:00 UTC.

2 Le vent souffle depuis la direction indiquée vers la direction oposée.

3 Les rafales max. sont disponible 40 min après l'heure du relevé.

4 Pour les stations d'altitude (plus de 600m) le géopotentiel du niveau le plus proche de la pression obligatoire est indiqué.

5 Les stations disposant d'un diffuseur peuvent indiquer "trace". Cela signifie que des précipitations ont touchés le sol mais que la quantité est inférieure à 0.1 mm.

Copyright

Les données affichées sur cette page sont la propriété exclusive de Météo Suisse.

Récapitulatif de la journée
Température [°C] Vent [km/h] Ensoleillement4 [h] Precipitations totale5 [mm] Pression [Hpa]
Min1 Max.2 Moy.3 Max. Min Max.
5.5 6.1 22.5 40.7 0 h 0 min 0 850.0 850.0

1 Température minimale relevée entre 18:00 UTC la veille et 18:00 UTC le jour donné.

2 Température maximale relevée entre 06:00 UTC le jour donné et 06:00 UTC le lendemain.

3 Vent moyen de la journée basé sur les relevés horaires.

4 Ensoleillement en heures relevé entre 06:00 UTC la veille et 06:00 UTC le jour donné.

5 Précipitations totales tombées entre 06:00 UTC la jour donné et 06:00 UTC le lendemain.

Graphiques horaires